sensor_id;sensor_type;location;lat;lon;timestamp;temperature;humidity
28761;DHT22;15917;50.014;8.352;2022-08-19T00:01:21;22.70;99.90
28761;DHT22;15917;50.014;8.352;2022-08-19T00:03:48;22.60;99.90
28761;DHT22;15917;50.014;8.352;2022-08-19T00:06:14;22.60;99.90
28761;DHT22;15917;50.014;8.352;2022-08-19T00:08:40;22.60;99.90
28761;DHT22;15917;50.014;8.352;2022-08-19T00:11:06;22.60;99.90
28761;DHT22;15917;50.014;8.352;2022-08-19T00:13:33;22.60;99.90
28761;DHT22;15917;50.014;8.352;2022-08-19T00:15:58;22.70;99.90
28761;DHT22;15917;50.014;8.352;2022-08-19T00:18:25;22.60;99.90
28761;DHT22;15917;50.014;8.352;2022-08-19T00:20:51;22.60;99.90
28761;DHT22;15917;50.014;8.352;2022-08-19T00:23:17;22.60;99.90
28761;DHT22;15917;50.014;8.352;2022-08-19T00:25:42;22.60;99.90
28761;DHT22;15917;50.014;8.352;2022-08-19T00:28:08;22.60;99.90
28761;DHT22;15917;50.014;8.352;2022-08-19T00:30:33;22.60;99.90
28761;DHT22;15917;50.014;8.352;2022-08-19T00:32:59;22.70;99.90
28761;DHT22;15917;50.014;8.352;2022-08-19T00:35:25;22.60;99.90
28761;DHT22;15917;50.014;8.352;2022-08-19T00:37:53;22.50;99.90
28761;DHT22;15917;50.014;8.352;2022-08-19T00:40:19;22.50;99.90
28761;DHT22;15917;50.014;8.352;2022-08-19T00:42:45;22.50;99.90
28761;DHT22;15917;50.014;8.352;2022-08-19T00:45:16;22.40;99.90
28761;DHT22;15917;50.014;8.352;2022-08-19T00:47:44;22.50;99.90
28761;DHT22;15917;50.014;8.352;2022-08-19T00:50:11;22.40;99.90
28761;DHT22;15917;50.014;8.352;2022-08-19T00:52:43;22.40;99.90
28761;DHT22;15917;50.014;8.352;2022-08-19T00:55:13;22.40;99.90
28761;DHT22;15917;50.014;8.352;2022-08-19T00:57:42;22.40;99.90
28761;DHT22;15917;50.014;8.352;2022-08-19T01:00:13;22.30;99.90
28761;DHT22;15917;50.014;8.352;2022-08-19T01:02:40;22.30;99.90
28761;DHT22;15917;50.014;8.352;2022-08-19T01:05:09;22.30;99.90
28761;DHT22;15917;50.014;8.352;2022-08-19T01:07:37;22.30;99.90
28761;DHT22;15917;50.014;8.352;2022-08-19T01:10:07;22.30;99.90
28761;DHT22;15917;50.014;8.352;2022-08-19T01:12:33;22.30;99.90
28761;DHT22;15917;50.014;8.352;2022-08-19T01:15:00;22.30;99.90
28761;DHT22;15917;50.014;8.352;2022-08-19T01:17:26;22.30;99.90
28761;DHT22;15917;50.014;8.352;2022-08-19T01:19:52;22.30;99.90
28761;DHT22;15917;50.014;8.352;2022-08-19T01:22:34;22.20;99.90
28761;DHT22;15917;50.014;8.352;2022-08-19T01:25:04;22.30;99.90
28761;DHT22;15917;50.014;8.352;2022-08-19T01:27:40;22.30;99.90
28761;DHT22;15917;50.014;8.352;2022-08-19T01:30:09;22.30;99.90
28761;DHT22;15917;50.014;8.352;2022-08-19T01:32:35;22.20;99.90
28761;DHT22;15917;50.014;8.352;2022-08-19T01:35:01;22.20;99.90
28761;DHT22;15917;50.014;8.352;2022-08-19T01:37:27;22.20;99.90
28761;DHT22;15917;50.014;8.352;2022-08-19T01:39:54;22.20;99.90
28761;DHT22;15917;50.014;8.352;2022-08-19T01:42:19;22.20;99.90
28761;DHT22;15917;50.014;8.352;2022-08-19T01:44:47;22.10;99.90
28761;DHT22;15917;50.014;8.352;2022-08-19T01:47:13;22.10;99.90
28761;DHT22;15917;50.014;8.352;2022-08-19T01:49:38;22.10;99.90
28761;DHT22;15917;50.014;8.352;2022-08-19T01:52:05;22.10;99.90
28761;DHT22;15917;50.014;8.352;2022-08-19T01:54:31;22.10;99.90
28761;DHT22;15917;50.014;8.352;2022-08-19T01:57:07;22.10;99.90
28761;DHT22;15917;50.014;8.352;2022-08-19T01:59:34;22.10;99.90
28761;DHT22;15917;50.014;8.352;2022-08-19T02:02:04;22.20;99.90
28761;DHT22;15917;50.014;8.352;2022-08-19T02:04:32;22.10;99.90
28761;DHT22;15917;50.014;8.352;2022-08-19T02:07:00;22.20;99.90
28761;DHT22;15917;50.014;8.352;2022-08-19T02:09:25;22.20;99.90
28761;DHT22;15917;50.014;8.352;2022-08-19T02:11:51;22.10;99.90
28761;DHT22;15917;50.014;8.352;2022-08-19T02:14:17;22.10;99.90
28761;DHT22;15917;50.014;8.352;2022-08-19T02:16:42;22.20;99.90
28761;DHT22;15917;50.014;8.352;2022-08-19T02:19:08;22.10;99.90
28761;DHT22;15917;50.014;8.352;2022-08-19T02:21:35;22.10;99.90
28761;DHT22;15917;50.014;8.352;2022-08-19T02:24:01;22.20;99.90
28761;DHT22;15917;50.014;8.352;2022-08-19T02:26:27;22.10;99.90
28761;DHT22;15917;50.014;8.352;2022-08-19T02:28:53;22.10;99.90
28761;DHT22;15917;50.014;8.352;2022-08-19T02:31:21;22.20;99.90
28761;DHT22;15917;50.014;8.352;2022-08-19T02:33:47;22.10;99.90
28761;DHT22;15917;50.014;8.352;2022-08-19T02:36:15;22.20;99.90
28761;DHT22;15917;50.014;8.352;2022-08-19T02:38:44;22.20;99.90
28761;DHT22;15917;50.014;8.352;2022-08-19T02:41:19;22.20;99.90
28761;DHT22;15917;50.014;8.352;2022-08-19T02:43:46;22.10;99.90
28761;DHT22;15917;50.014;8.352;2022-08-19T02:46:25;22.10;99.90
28761;DHT22;15917;50.014;8.352;2022-08-19T02:48:54;22.10;99.90
28761;DHT22;15917;50.014;8.352;2022-08-19T02:51:23;22.10;99.90
28761;DHT22;15917;50.014;8.352;2022-08-19T02:53:49;22.10;99.90
28761;DHT22;15917;50.014;8.352;2022-08-19T02:56:15;22.00;99.90
28761;DHT22;15917;50.014;8.352;2022-08-19T02:58:41;22.00;99.90
28761;DHT22;15917;50.014;8.352;2022-08-19T03:01:07;22.00;99.90
28761;DHT22;15917;50.014;8.352;2022-08-19T03:03:33;22.00;99.90
28761;DHT22;15917;50.014;8.352;2022-08-19T03:06:12;22.00;99.90
28761;DHT22;15917;50.014;8.352;2022-08-19T03:08:40;21.90;99.90
28761;DHT22;15917;50.014;8.352;2022-08-19T03:11:11;21.90;99.90
28761;DHT22;15917;50.014;8.352;2022-08-19T03:13:37;21.90;99.90
28761;DHT22;15917;50.014;8.352;2022-08-19T03:16:04;21.80;99.90
28761;DHT22;15917;50.014;8.352;2022-08-19T03:18:30;21.80;99.90
28761;DHT22;15917;50.014;8.352;2022-08-19T03:20:56;21.70;99.90
28761;DHT22;15917;50.014;8.352;2022-08-19T03:23:23;21.70;99.90
28761;DHT22;15917;50.014;8.352;2022-08-19T03:25:50;21.70;99.90
28761;DHT22;15917;50.014;8.352;2022-08-19T03:28:16;21.60;99.90
28761;DHT22;15917;50.014;8.352;2022-08-19T03:30:43;21.60;99.90
28761;DHT22;15917;50.014;8.352;2022-08-19T03:33:22;21.60;99.90
28761;DHT22;15917;50.014;8.352;2022-08-19T03:35:58;21.60;99.90
28761;DHT22;15917;50.014;8.352;2022-08-19T03:38:24;21.50;99.90
28761;DHT22;15917;50.014;8.352;2022-08-19T03:40:50;21.50;99.90
28761;DHT22;15917;50.014;8.352;2022-08-19T03:43:15;21.50;99.90
28761;DHT22;15917;50.014;8.352;2022-08-19T03:45:43;21.50;99.90
28761;DHT22;15917;50.014;8.352;2022-08-19T03:48:08;21.50;99.90
28761;DHT22;15917;50.014;8.352;2022-08-19T03:50:39;21.50;99.90
28761;DHT22;15917;50.014;8.352;2022-08-19T03:53:05;21.50;99.90
28761;DHT22;15917;50.014;8.352;2022-08-19T03:55:32;21.50;99.90
28761;DHT22;15917;50.014;8.352;2022-08-19T03:57:58;21.50;99.90
28761;DHT22;15917;50.014;8.352;2022-08-19T04:00:24;21.50;99.90
28761;DHT22;15917;50.014;8.352;2022-08-19T04:02:50;21.40;99.90
28761;DHT22;15917;50.014;8.352;2022-08-19T04:05:15;21.50;99.90
28761;DHT22;15917;50.014;8.352;2022-08-19T04:07:41;21.40;99.90
28761;DHT22;15917;50.014;8.352;2022-08-19T04:10:07;21.40;99.90
28761;DHT22;15917;50.014;8.352;2022-08-19T04:12:32;21.40;99.90
28761;DHT22;15917;50.014;8.352;2022-08-19T04:14:58;21.30;99.90
28761;DHT22;15917;50.014;8.352;2022-08-19T04:17:24;21.30;99.90
28761;DHT22;15917;50.014;8.352;2022-08-19T04:19:49;21.40;99.90
28761;DHT22;15917;50.014;8.352;2022-08-19T04:22:15;21.50;99.90
28761;DHT22;15917;50.014;8.352;2022-08-19T04:24:40;21.50;99.90
28761;DHT22;15917;50.014;8.352;2022-08-19T04:27:06;21.60;99.90
28761;DHT22;15917;50.014;8.352;2022-08-19T04:29:33;21.90;99.90
28761;DHT22;15917;50.014;8.352;2022-08-19T04:31:59;22.10;99.90
28761;DHT22;15917;50.014;8.352;2022-08-19T04:34:27;22.20;99.90
28761;DHT22;15917;50.014;8.352;2022-08-19T04:36:54;22.20;99.90
28761;DHT22;15917;50.014;8.352;2022-08-19T04:39:24;22.20;99.90
28761;DHT22;15917;50.014;8.352;2022-08-19T04:42:10;22.30;99.90
28761;DHT22;15917;50.014;8.352;2022-08-19T04:44:54;22.30;99.90
28761;DHT22;15917;50.014;8.352;2022-08-19T04:47:20;22.40;99.90
28761;DHT22;15917;50.014;8.352;2022-08-19T04:49:45;22.40;99.90
28761;DHT22;15917;50.014;8.352;2022-08-19T04:52:11;22.50;99.90
28761;DHT22;15917;50.014;8.352;2022-08-19T04:54:37;22.50;99.90
28761;DHT22;15917;50.014;8.352;2022-08-19T04:57:03;22.50;99.90
28761;DHT22;15917;50.014;8.352;2022-08-19T04:59:31;22.40;99.90
28761;DHT22;15917;50.014;8.352;2022-08-19T05:01:58;22.50;99.90
28761;DHT22;15917;50.014;8.352;2022-08-19T05:04:24;22.50;99.90
28761;DHT22;15917;50.014;8.352;2022-08-19T05:06:50;22.60;99.90
28761;DHT22;15917;50.014;8.352;2022-08-19T05:09:17;22.50;99.90
28761;DHT22;15917;50.014;8.352;2022-08-19T05:11:44;22.60;99.90
28761;DHT22;15917;50.014;8.352;2022-08-19T05:14:10;22.60;99.90
28761;DHT22;15917;50.014;8.352;2022-08-19T05:16:39;22.70;99.90
28761;DHT22;15917;50.014;8.352;2022-08-19T05:19:04;22.70;99.90
28761;DHT22;15917;50.014;8.352;2022-08-19T05:21:48;22.70;99.90
28761;DHT22;15917;50.014;8.352;2022-08-19T05:24:33;22.70;99.90
28761;DHT22;15917;50.014;8.352;2022-08-19T05:27:00;22.70;99.90
28761;DHT22;15917;50.014;8.352;2022-08-19T05:29:29;22.60;99.90
28761;DHT22;15917;50.014;8.352;2022-08-19T05:31:55;22.70;99.90
28761;DHT22;15917;50.014;8.352;2022-08-19T05:34:23;22.70;99.90
28761;DHT22;15917;50.014;8.352;2022-08-19T05:36:54;22.70;99.90
28761;DHT22;15917;50.014;8.352;2022-08-19T05:39:25;22.70;99.90
28761;DHT22;15917;50.014;8.352;2022-08-19T05:41:56;22.70;99.90
28761;DHT22;15917;50.014;8.352;2022-08-19T05:44:25;22.70;99.90
28761;DHT22;15917;50.014;8.352;2022-08-19T05:46:52;22.70;99.90
28761;DHT22;15917;50.014;8.352;2022-08-19T05:49:21;22.70;99.90
28761;DHT22;15917;50.014;8.352;2022-08-19T05:51:48;22.80;99.90
28761;DHT22;15917;50.014;8.352;2022-08-19T05:54:14;22.90;99.90
28761;DHT22;15917;50.014;8.352;2022-08-19T05:56:41;22.90;99.90
28761;DHT22;15917;50.014;8.352;2022-08-19T05:59:14;22.90;99.90
28761;DHT22;15917;50.014;8.352;2022-08-19T06:01:41;22.90;99.90
28761;DHT22;15917;50.014;8.352;2022-08-19T06:04:07;22.80;99.90
28761;DHT22;15917;50.014;8.352;2022-08-19T06:06:34;22.70;99.90
28761;DHT22;15917;50.014;8.352;2022-08-19T06:09:07;22.70;99.90
28761;DHT22;15917;50.014;8.352;2022-08-19T06:11:37;22.70;99.90
28761;DHT22;15917;50.014;8.352;2022-08-19T06:14:10;22.80;99.90
28761;DHT22;15917;50.014;8.352;2022-08-19T06:16:41;23.00;99.90
28761;DHT22;15917;50.014;8.352;2022-08-19T06:19:13;23.10;99.90
28761;DHT22;15917;50.014;8.352;2022-08-19T06:21:41;23.10;99.90
28761;DHT22;15917;50.014;8.352;2022-08-19T06:24:08;23.10;99.90
28761;DHT22;15917;50.014;8.352;2022-08-19T06:26:35;23.00;99.90
28761;DHT22;15917;50.014;8.352;2022-08-19T06:29:03;23.00;99.90
28761;DHT22;15917;50.014;8.352;2022-08-19T06:31:32;22.80;99.90
28761;DHT22;15917;50.014;8.352;2022-08-19T06:34:03;22.80;99.90
28761;DHT22;15917;50.014;8.352;2022-08-19T06:36:36;22.70;99.90
28761;DHT22;15917;50.014;8.352;2022-08-19T06:39:09;22.60;99.90
28761;DHT22;15917;50.014;8.352;2022-08-19T06:41:39;22.70;99.90
28761;DHT22;15917;50.014;8.352;2022-08-19T06:44:16;22.60;99.90
28761;DHT22;15917;50.014;8.352;2022-08-19T06:46:43;22.60;99.90
28761;DHT22;15917;50.014;8.352;2022-08-19T06:49:09;22.60;99.90
28761;DHT22;15917;50.014;8.352;2022-08-19T06:51:43;22.80;99.90
28761;DHT22;15917;50.014;8.352;2022-08-19T06:54:10;23.00;99.90
28761;DHT22;15917;50.014;8.352;2022-08-19T06:56:37;23.10;99.90
28761;DHT22;15917;50.014;8.352;2022-08-19T06:59:04;23.10;99.90
28761;DHT22;15917;50.014;8.352;2022-08-19T07:01:33;23.20;99.90
28761;DHT22;15917;50.014;8.352;2022-08-19T07:03:59;23.30;99.90
28761;DHT22;15917;50.014;8.352;2022-08-19T07:06:27;23.40;99.90
28761;DHT22;15917;50.014;8.352;2022-08-19T07:08:53;23.40;99.90
28761;DHT22;15917;50.014;8.352;2022-08-19T07:11:18;23.50;99.90
28761;DHT22;15917;50.014;8.352;2022-08-19T07:13:45;23.50;99.90
28761;DHT22;15917;50.014;8.352;2022-08-19T07:16:17;23.60;99.90
28761;DHT22;15917;50.014;8.352;2022-08-19T07:18:46;23.70;99.90
28761;DHT22;15917;50.014;8.352;2022-08-19T07:21:25;23.80;99.90
28761;DHT22;15917;50.014;8.352;2022-08-19T07:23:55;23.90;99.90
28761;DHT22;15917;50.014;8.352;2022-08-19T07:26:28;24.00;99.90
28761;DHT22;15917;50.014;8.352;2022-08-19T07:28:55;24.00;99.90
28761;DHT22;15917;50.014;8.352;2022-08-19T07:31:24;24.00;99.90
28761;DHT22;15917;50.014;8.352;2022-08-19T07:33:51;24.10;99.90
28761;DHT22;15917;50.014;8.352;2022-08-19T07:36:20;24.30;99.90
28761;DHT22;15917;50.014;8.352;2022-08-19T07:38:50;24.30;99.90
28761;DHT22;15917;50.014;8.352;2022-08-19T07:41:20;24.30;99.90
28761;DHT22;15917;50.014;8.352;2022-08-19T07:43:47;24.30;99.90
28761;DHT22;15917;50.014;8.352;2022-08-19T07:46:13;24.40;99.90
28761;DHT22;15917;50.014;8.352;2022-08-19T07:48:41;24.50;99.90
28761;DHT22;15917;50.014;8.352;2022-08-19T07:51:09;24.40;99.90
28761;DHT22;15917;50.014;8.352;2022-08-19T07:53:37;24.50;99.90
28761;DHT22;15917;50.014;8.352;2022-08-19T07:56:03;24.50;99.90
28761;DHT22;15917;50.014;8.352;2022-08-19T07:58:32;24.50;99.90
28761;DHT22;15917;50.014;8.352;2022-08-19T08:00:59;24.60;99.90
28761;DHT22;15917;50.014;8.352;2022-08-19T08:03:25;24.70;99.90
28761;DHT22;15917;50.014;8.352;2022-08-19T08:06:12;24.70;99.90
28761;DHT22;15917;50.014;8.352;2022-08-19T08:08:57;24.80;99.90
28761;DHT22;15917;50.014;8.352;2022-08-19T08:11:49;24.80;99.90
28761;DHT22;15917;50.014;8.352;2022-08-19T08:14:29;24.90;99.90
28761;DHT22;15917;50.014;8.352;2022-08-19T08:16:55;25.10;99.90
28761;DHT22;15917;50.014;8.352;2022-08-19T08:19:23;25.10;99.90
28761;DHT22;15917;50.014;8.352;2022-08-19T08:21:49;25.10;99.90
28761;DHT22;15917;50.014;8.352;2022-08-19T08:24:16;25.20;99.90
28761;DHT22;15917;50.014;8.352;2022-08-19T08:26:42;25.20;99.90
28761;DHT22;15917;50.014;8.352;2022-08-19T08:29:10;25.20;99.90
28761;DHT22;15917;50.014;8.352;2022-08-19T08:31:37;25.20;99.90
28761;DHT22;15917;50.014;8.352;2022-08-19T08:34:03;25.20;99.90
28761;DHT22;15917;50.014;8.352;2022-08-19T08:36:28;25.10;99.90
28761;DHT22;15917;50.014;8.352;2022-08-19T08:38:54;25.00;99.90
28761;DHT22;15917;50.014;8.352;2022-08-19T08:41:29;24.90;99.90
28761;DHT22;15917;50.014;8.352;2022-08-19T08:43:57;24.90;99.90
28761;DHT22;15917;50.014;8.352;2022-08-19T08:46:30;24.90;99.90
28761;DHT22;15917;50.014;8.352;2022-08-19T08:51:52;24.90;99.90
28761;DHT22;15917;50.014;8.352;2022-08-19T08:54:24;25.00;99.90
28761;DHT22;15917;50.014;8.352;2022-08-19T08:56:53;25.00;99.90
28761;DHT22;15917;50.014;8.352;2022-08-19T08:59:29;25.00;99.90
28761;DHT22;15917;50.014;8.352;2022-08-19T09:01:58;24.90;99.90
28761;DHT22;15917;50.014;8.352;2022-08-19T09:04:24;25.00;99.90
28761;DHT22;15917;50.014;8.352;2022-08-19T09:09:41;25.00;99.90
28761;DHT22;15917;50.014;8.352;2022-08-19T09:12:22;24.90;99.90
28761;DHT22;15917;50.014;8.352;2022-08-19T09:17:17;24.90;99.90
28761;DHT22;15917;50.014;8.352;2022-08-19T09:20:08;25.10;99.90
28761;DHT22;15917;50.014;8.352;2022-08-19T09:22:40;25.40;99.90
28761;DHT22;15917;50.014;8.352;2022-08-19T09:25:08;25.60;99.90
28761;DHT22;15917;50.014;8.352;2022-08-19T09:27:36;25.70;99.90
28761;DHT22;15917;50.014;8.352;2022-08-19T09:30:04;25.90;99.90
28761;DHT22;15917;50.014;8.352;2022-08-19T09:32:30;26.00;99.90
28761;DHT22;15917;50.014;8.352;2022-08-19T09:34:55;26.20;99.90
28761;DHT22;15917;50.014;8.352;2022-08-19T09:37:24;26.20;99.90
28761;DHT22;15917;50.014;8.352;2022-08-19T09:39:50;26.20;99.90
28761;DHT22;15917;50.014;8.352;2022-08-19T09:42:16;26.30;99.90
28761;DHT22;15917;50.014;8.352;2022-08-19T09:44:43;26.30;99.90
28761;DHT22;15917;50.014;8.352;2022-08-19T09:47:10;26.40;99.90
28761;DHT22;15917;50.014;8.352;2022-08-19T09:49:37;26.50;99.90
28761;DHT22;15917;50.014;8.352;2022-08-19T09:52:04;26.60;99.90
28761;DHT22;15917;50.014;8.352;2022-08-19T09:54:31;26.70;99.90
28761;DHT22;15917;50.014;8.352;2022-08-19T09:56:58;26.80;99.90
28761;DHT22;15917;50.014;8.352;2022-08-19T09:59:26;26.80;99.90
28761;DHT22;15917;50.014;8.352;2022-08-19T10:01:52;26.90;99.90
28761;DHT22;15917;50.014;8.352;2022-08-19T10:04:17;27.00;99.90
28761;DHT22;15917;50.014;8.352;2022-08-19T10:06:43;27.10;99.90
28761;DHT22;15917;50.014;8.352;2022-08-19T10:09:10;27.20;99.90
28761;DHT22;15917;50.014;8.352;2022-08-19T10:11:39;27.30;99.90
28761;DHT22;15917;50.014;8.352;2022-08-19T10:14:06;27.40;99.90
28761;DHT22;15917;50.014;8.352;2022-08-19T10:16:32;27.40;99.90
28761;DHT22;15917;50.014;8.352;2022-08-19T10:18:58;27.50;99.90
28761;DHT22;15917;50.014;8.352;2022-08-19T10:21:29;27.50;99.90
28761;DHT22;15917;50.014;8.352;2022-08-19T10:23:58;27.60;99.90
28761;DHT22;15917;50.014;8.352;2022-08-19T10:26:29;27.80;99.90
28761;DHT22;15917;50.014;8.352;2022-08-19T10:28:56;27.80;99.90
28761;DHT22;15917;50.014;8.352;2022-08-19T10:31:25;27.80;99.90
28761;DHT22;15917;50.014;8.352;2022-08-19T10:33:51;28.00;99.90
28761;DHT22;15917;50.014;8.352;2022-08-19T10:36:25;28.20;99.90
28761;DHT22;15917;50.014;8.352;2022-08-19T10:38:52;28.20;99.80
28761;DHT22;15917;50.014;8.352;2022-08-19T10:41:20;28.30;99.70
28761;DHT22;15917;50.014;8.352;2022-08-19T10:43:51;28.40;99.10
28761;DHT22;15917;50.014;8.352;2022-08-19T10:46:17;28.40;99.10
28761;DHT22;15917;50.014;8.352;2022-08-19T10:48:44;28.50;98.60
28761;DHT22;15917;50.014;8.352;2022-08-19T10:51:11;28.50;98.10
28761;DHT22;15917;50.014;8.352;2022-08-19T10:53:56;28.60;97.40
28761;DHT22;15917;50.014;8.352;2022-08-19T10:56:22;28.60;97.60
28761;DHT22;15917;50.014;8.352;2022-08-19T10:59:06;28.60;97.30
28761;DHT22;15917;50.014;8.352;2022-08-19T11:01:33;28.70;96.70
28761;DHT22;15917;50.014;8.352;2022-08-19T11:04:01;28.80;96.40
28761;DHT22;15917;50.014;8.352;2022-08-19T11:06:28;28.90;96.10
28761;DHT22;15917;50.014;8.352;2022-08-19T11:08:55;29.00;95.80
28761;DHT22;15917;50.014;8.352;2022-08-19T11:11:22;29.00;95.40
28761;DHT22;15917;50.014;8.352;2022-08-19T11:13:48;29.00;95.40
28761;DHT22;15917;50.014;8.352;2022-08-19T11:16:26;29.10;95.40
28761;DHT22;15917;50.014;8.352;2022-08-19T11:18:57;29.20;95.10
28761;DHT22;15917;50.014;8.352;2022-08-19T11:21:28;29.30;94.60
28761;DHT22;15917;50.014;8.352;2022-08-19T11:23:57;29.30;94.10
28761;DHT22;15917;50.014;8.352;2022-08-19T11:26:24;29.40;94.00
28761;DHT22;15917;50.014;8.352;2022-08-19T11:28:51;29.40;93.50
28761;DHT22;15917;50.014;8.352;2022-08-19T11:31:23;29.40;93.20
28761;DHT22;15917;50.014;8.352;2022-08-19T11:33:49;29.50;93.30
28761;DHT22;15917;50.014;8.352;2022-08-19T11:36:21;29.60;93.30
28761;DHT22;15917;50.014;8.352;2022-08-19T11:38:50;29.70;93.40
28761;DHT22;15917;50.014;8.352;2022-08-19T11:41:18;29.80;93.40
28761;DHT22;15917;50.014;8.352;2022-08-19T11:43:44;29.80;93.40
28761;DHT22;15917;50.014;8.352;2022-08-19T11:46:13;29.70;92.70
28761;DHT22;15917;50.014;8.352;2022-08-19T11:48:40;29.60;92.30
28761;DHT22;15917;50.014;8.352;2022-08-19T11:51:09;29.30;92.00
28761;DHT22;15917;50.014;8.352;2022-08-19T11:53:35;29.20;91.90
28761;DHT22;15917;50.014;8.352;2022-08-19T11:56:03;29.30;91.60
28761;DHT22;15917;50.014;8.352;2022-08-19T11:58:29;29.40;91.60
28761;DHT22;15917;50.014;8.352;2022-08-19T12:00:55;29.60;90.80
28761;DHT22;15917;50.014;8.352;2022-08-19T12:03:21;29.70;90.60
28761;DHT22;15917;50.014;8.352;2022-08-19T12:05:47;29.80;90.00
28761;DHT22;15917;50.014;8.352;2022-08-19T12:08:14;30.00;89.10
28761;DHT22;15917;50.014;8.352;2022-08-19T12:10:40;30.10;89.40
28761;DHT22;15917;50.014;8.352;2022-08-19T12:13:08;30.10;89.90
28761;DHT22;15917;50.014;8.352;2022-08-19T12:15:39;30.20;90.20
28761;DHT22;15917;50.014;8.352;2022-08-19T12:18:08;30.00;87.80
28761;DHT22;15917;50.014;8.352;2022-08-19T12:20:36;29.90;89.20
28761;DHT22;15917;50.014;8.352;2022-08-19T12:23:03;30.10;88.60
28761;DHT22;15917;50.014;8.352;2022-08-19T12:25:28;30.20;88.70
28761;DHT22;15917;50.014;8.352;2022-08-19T12:27:54;30.40;87.00
28761;DHT22;15917;50.014;8.352;2022-08-19T12:30:20;30.40;87.00
28761;DHT22;15917;50.014;8.352;2022-08-19T12:32:46;30.40;87.30
28761;DHT22;15917;50.014;8.352;2022-08-19T12:35:11;30.50;87.00
28761;DHT22;15917;50.014;8.352;2022-08-19T12:37:38;30.50;86.80
28761;DHT22;15917;50.014;8.352;2022-08-19T12:40:04;30.50;86.80
28761;DHT22;15917;50.014;8.352;2022-08-19T12:42:30;30.60;83.60
28761;DHT22;15917;50.014;8.352;2022-08-19T12:44:56;30.60;83.00
28761;DHT22;15917;50.014;8.352;2022-08-19T12:47:22;30.60;83.60
28761;DHT22;15917;50.014;8.352;2022-08-19T12:49:48;30.20;85.10
28761;DHT22;15917;50.014;8.352;2022-08-19T12:52:14;29.80;86.00
28761;DHT22;15917;50.014;8.352;2022-08-19T12:54:41;29.70;86.30
28761;DHT22;15917;50.014;8.352;2022-08-19T12:57:09;29.90;84.60
28761;DHT22;15917;50.014;8.352;2022-08-19T12:59:36;30.00;84.70
28761;DHT22;15917;50.014;8.352;2022-08-19T13:02:03;30.20;85.10
28761;DHT22;15917;50.014;8.352;2022-08-19T13:04:32;30.40;84.00
28761;DHT22;15917;50.014;8.352;2022-08-19T13:07:00;30.60;84.10
28761;DHT22;15917;50.014;8.352;2022-08-19T13:09:26;30.60;82.60
28761;DHT22;15917;50.014;8.352;2022-08-19T13:11:51;30.30;83.10
28761;DHT22;15917;50.014;8.352;2022-08-19T13:14:17;30.10;83.90
28761;DHT22;15917;50.014;8.352;2022-08-19T13:16:44;30.20;84.60
28761;DHT22;15917;50.014;8.352;2022-08-19T13:19:09;30.50;84.10
28761;DHT22;15917;50.014;8.352;2022-08-19T13:21:36;30.70;81.80
28761;DHT22;15917;50.014;8.352;2022-08-19T13:24:01;30.60;81.50
28761;DHT22;15917;50.014;8.352;2022-08-19T13:26:27;30.40;82.30
28761;DHT22;15917;50.014;8.352;2022-08-19T13:28:53;30.20;83.10
28761;DHT22;15917;50.014;8.352;2022-08-19T13:31:40;30.00;83.50
28761;DHT22;15917;50.014;8.352;2022-08-19T13:34:29;30.00;84.00
28761;DHT22;15917;50.014;8.352;2022-08-19T13:36:55;29.90;83.80
28761;DHT22;15917;50.014;8.352;2022-08-19T13:39:21;29.80;83.90
28761;DHT22;15917;50.014;8.352;2022-08-19T13:41:48;29.50;84.80
28761;DHT22;15917;50.014;8.352;2022-08-19T13:44:16;29.30;85.80
28761;DHT22;15917;50.014;8.352;2022-08-19T13:46:44;29.20;86.30
28761;DHT22;15917;50.014;8.352;2022-08-19T13:49:11;29.40;86.20
28761;DHT22;15917;50.014;8.352;2022-08-19T13:51:38;29.50;85.50
28761;DHT22;15917;50.014;8.352;2022-08-19T13:54:06;29.90;83.10
28761;DHT22;15917;50.014;8.352;2022-08-19T13:56:31;30.20;82.40
28761;DHT22;15917;50.014;8.352;2022-08-19T13:58:57;30.20;82.70
28761;DHT22;15917;50.014;8.352;2022-08-19T14:01:23;30.20;83.90
28761;DHT22;15917;50.014;8.352;2022-08-19T14:03:49;29.90;83.20
28761;DHT22;15917;50.014;8.352;2022-08-19T14:06:15;29.60;84.20
28761;DHT22;15917;50.014;8.352;2022-08-19T14:08:43;29.50;84.70
28761;DHT22;15917;50.014;8.352;2022-08-19T14:11:09;29.60;84.30
28761;DHT22;15917;50.014;8.352;2022-08-19T14:13:35;29.90;83.30
28761;DHT22;15917;50.014;8.352;2022-08-19T14:16:01;30.10;83.40
28761;DHT22;15917;50.014;8.352;2022-08-19T14:18:32;30.40;82.50
28761;DHT22;15917;50.014;8.352;2022-08-19T14:20:57;30.40;82.00
28761;DHT22;15917;50.014;8.352;2022-08-19T14:23:23;30.20;82.20
28761;DHT22;15917;50.014;8.352;2022-08-19T14:25:48;30.20;82.60
28761;DHT22;15917;50.014;8.352;2022-08-19T14:28:14;30.40;81.00
28761;DHT22;15917;50.014;8.352;2022-08-19T14:30:40;30.60;80.70
28761;DHT22;15917;50.014;8.352;2022-08-19T14:33:06;30.70;79.70
28761;DHT22;15917;50.014;8.352;2022-08-19T14:35:33;30.90;77.20
28761;DHT22;15917;50.014;8.352;2022-08-19T14:38:00;31.10;77.60
28761;DHT22;15917;50.014;8.352;2022-08-19T14:40:28;31.20;77.80
28761;DHT22;15917;50.014;8.352;2022-08-19T14:42:56;31.40;76.80
28761;DHT22;15917;50.014;8.352;2022-08-19T14:45:26;31.50;76.40
28761;DHT22;15917;50.014;8.352;2022-08-19T14:47:52;31.50;76.10
28761;DHT22;15917;50.014;8.352;2022-08-19T14:50:18;31.50;75.10
28761;DHT22;15917;50.014;8.352;2022-08-19T14:52:49;31.60;74.90
28761;DHT22;15917;50.014;8.352;2022-08-19T14:55:16;31.70;73.90
28761;DHT22;15917;50.014;8.352;2022-08-19T14:57:43;31.80;74.20
28761;DHT22;15917;50.014;8.352;2022-08-19T15:00:09;31.80;74.40
28761;DHT22;15917;50.014;8.352;2022-08-19T15:02:39;31.70;73.90
28761;DHT22;15917;50.014;8.352;2022-08-19T15:05:05;31.70;74.50
28761;DHT22;15917;50.014;8.352;2022-08-19T15:07:31;31.70;74.60
28761;DHT22;15917;50.014;8.352;2022-08-19T15:09:58;31.80;74.30
28761;DHT22;15917;50.014;8.352;2022-08-19T15:12:24;31.80;73.90
28761;DHT22;15917;50.014;8.352;2022-08-19T15:14:50;31.80;74.30
28761;DHT22;15917;50.014;8.352;2022-08-19T15:17:17;32.00;74.70
28761;DHT22;15917;50.014;8.352;2022-08-19T15:19:43;32.10;74.20
28761;DHT22;15917;50.014;8.352;2022-08-19T15:22:09;32.20;72.80
28761;DHT22;15917;50.014;8.352;2022-08-19T15:24:35;32.10;72.10
28761;DHT22;15917;50.014;8.352;2022-08-19T15:27:01;32.10;72.20
28761;DHT22;15917;50.014;8.352;2022-08-19T15:29:27;32.20;73.00
28761;DHT22;15917;50.014;8.352;2022-08-19T15:31:54;32.20;72.90
28761;DHT22;15917;50.014;8.352;2022-08-19T15:34:24;32.30;72.20
28761;DHT22;15917;50.014;8.352;2022-08-19T15:36:51;32.30;72.40
28761;DHT22;15917;50.014;8.352;2022-08-19T15:39:17;32.30;71.70
28761;DHT22;15917;50.014;8.352;2022-08-19T15:41:44;32.10;72.20
28761;DHT22;15917;50.014;8.352;2022-08-19T15:44:12;32.00;71.90